Time;durP1;ratioP1;P1;durP2;ratioP2;P2;SDS_P1;SDS_P2;PMS_P1;PMS_P2;Temp;Humidity;BMP_temperature;BMP_pressure;BME280_temperature;BME280_humidity;BME280_pressure;Samples;Min_cycle;Max_cycle;Signal;HPM_P1;HPM_P2
2021/09/17 00:00:02;;;;;;;;;;;13.20;99.90;;;;;;5008692;28;20332;-78
2021/09/17 00:02:29;;;;;;;;;;;13.20;99.90;;;;;;5001307;28;19932;-78
2021/09/17 00:05:04;;;;;;;;;;;13.20;99.90;;;;;;5005451;28;19941;-79
2021/09/17 00:07:35;;;;;;;;;;;13.20;99.90;;;;;;5007837;28;19925;-80
2021/09/17 00:10:02;;;;;;;;;;;13.20;99.90;;;;;;5008189;28;20334;-79
2021/09/17 00:12:29;;;;;;;;;;;13.10;99.90;;;;;;5011612;28;19951;-80
2021/09/17 00:14:55;;;;;;;;;;;13.10;99.90;;;;;;5008440;28;19929;-80
2021/09/17 00:17:22;;;;;;;;;;;13.00;99.90;;;;;;5007676;28;19932;-79
2021/09/17 00:19:49;;;;;;;;;;;12.90;99.90;;;;;;5014739;28;19932;-79
2021/09/17 00:22:17;;;;;;;;;;;12.80;99.90;;;;;;5022704;28;19933;-79
2021/09/17 00:24:44;;;;;;;;;;;12.70;99.90;;;;;;5026073;28;22525;-79
2021/09/17 00:27:11;;;;;;;;;;;12.70;99.90;;;;;;5002538;28;19979;-80
2021/09/17 00:29:38;;;;;;;;;;;12.70;99.90;;;;;;5009206;28;19933;-80
2021/09/17 00:32:05;;;;;;;;;;;12.60;99.90;;;;;;5004362;28;20459;-80
2021/09/17 00:34:32;;;;;;;;;;;12.60;99.90;;;;;;5005416;28;19926;-79
2021/09/17 00:36:58;;;;;;;;;;;12.60;99.90;;;;;;5004228;28;19929;-80
2021/09/17 00:39:26;;;;;;;;;;;12.60;99.90;;;;;;4999050;28;19990;-79
2021/09/17 00:41:53;;;;;;;;;;;12.60;99.90;;;;;;5006660;28;19933;-81
2021/09/17 00:44:24;;;;;;;;;;;12.50;99.90;;;;;;5000944;28;19932;-80
2021/09/17 00:46:51;;;;;;;;;;;12.50;99.90;;;;;;4999311;28;20072;-80
2021/09/17 00:49:18;;;;;;;;;;;12.50;99.90;;;;;;5000775;28;19932;-80
2021/09/17 00:51:45;;;;;;;;;;;12.40;99.90;;;;;;5007125;28;19937;-82
2021/09/17 00:54:11;;;;;;;;;;;12.40;99.90;;;;;;5008118;28;19926;-80
2021/09/17 00:56:39;;;;;;;;;;;12.40;99.90;;;;;;5006544;28;19948;-79
2021/09/17 00:59:06;;;;;;;;;;;12.50;99.90;;;;;;5007276;28;19933;-82
2021/09/17 01:01:33;;;;;;;;;;;12.50;99.90;;;;;;5003499;28;19934;-81
2021/09/17 01:04:00;;;;;;;;;;;12.50;99.90;;;;;;5005392;28;19926;-81
2021/09/17 01:06:27;;;;;;;;;;;12.50;99.90;;;;;;5004355;28;19937;-82
2021/09/17 01:08:54;;;;;;;;;;;12.50;99.90;;;;;;5005930;28;19930;-79
2021/09/17 01:11:21;;;;;;;;;;;12.50;99.90;;;;;;5001944;28;19926;-82
2021/09/17 01:13:50;;;;;;;;;;;12.50;99.90;;;;;;5001975;28;19939;-80
2021/09/17 01:16:17;;;;;;;;;;;12.50;99.90;;;;;;5002667;28;20395;-80
2021/09/17 01:18:43;;;;;;;;;;;12.50;99.90;;;;;;5006593;28;19926;-80
2021/09/17 01:21:12;;;;;;;;;;;12.50;99.90;;;;;;5005968;28;19948;-80
2021/09/17 01:23:39;;;;;;;;;;;12.60;99.90;;;;;;5000560;28;19932;-80
2021/09/17 01:26:09;;;;;;;;;;;12.50;99.90;;;;;;5003551;28;20425;-82
2021/09/17 01:28:36;;;;;;;;;;;12.50;99.90;;;;;;5003758;28;19948;-82
2021/09/17 01:31:03;;;;;;;;;;;12.40;99.90;;;;;;5010064;28;19937;-82
2021/09/17 01:33:30;;;;;;;;;;;12.40;99.90;;;;;;5001834;28;19925;-82
2021/09/17 01:35:57;;;;;;;;;;;12.40;99.90;;;;;;5003383;28;20400;-80
2021/09/17 01:38:25;;;;;;;;;;;12.40;99.90;;;;;;5008850;28;20020;-80
2021/09/17 01:40:52;;;;;;;;;;;12.40;99.90;;;;;;5005114;28;19926;-80
2021/09/17 01:43:19;;;;;;;;;;;12.50;99.90;;;;;;5008501;28;20407;-79
2021/09/17 01:45:46;;;;;;;;;;;12.50;99.90;;;;;;5011770;28;19975;-80
2021/09/17 01:48:13;;;;;;;;;;;12.50;99.90;;;;;;5007112;28;19953;-80
2021/09/17 01:50:40;;;;;;;;;;;12.60;99.90;;;;;;5011534;28;19929;-80
2021/09/17 01:53:07;;;;;;;;;;;12.60;99.90;;;;;;5009112;28;19937;-80
2021/09/17 01:55:35;;;;;;;;;;;12.60;99.90;;;;;;5000493;28;19933;-81
2021/09/17 01:58:02;;;;;;;;;;;12.60;99.90;;;;;;5005426;28;19934;-81
2021/09/17 02:00:29;;;;;;;;;;;12.60;99.90;;;;;;5004531;28;19990;-80
2021/09/17 02:02:55;;;;;;;;;;;12.60;99.90;;;;;;5005308;28;19926;-80
2021/09/17 02:05:22;;;;;;;;;;;12.60;99.90;;;;;;5005246;28;19929;-80
2021/09/17 02:07:49;;;;;;;;;;;12.60;99.90;;;;;;5002221;28;19970;-80
2021/09/17 02:10:16;;;;;;;;;;;12.60;99.90;;;;;;5010048;28;20297;-80
2021/09/17 02:12:44;;;;;;;;;;;12.60;99.90;;;;;;5006299;28;19925;-80
2021/09/17 02:15:11;;;;;;;;;;;12.60;99.90;;;;;;5002776;28;19926;-80
2021/09/17 02:17:39;;;;;;;;;;;12.60;99.90;;;;;;5004519;28;19945;-81
2021/09/17 02:20:06;;;;;;;;;;;12.60;99.90;;;;;;5009129;28;20372;-81
2021/09/17 02:22:34;;;;;;;;;;;12.50;99.90;;;;;;5010055;28;19932;-81
2021/09/17 02:25:01;;;;;;;;;;;12.60;99.90;;;;;;5000614;28;19930;-80
2021/09/17 02:27:27;;;;;;;;;;;12.50;99.90;;;;;;5006584;28;19926;-79
2021/09/17 02:29:56;;;;;;;;;;;12.50;99.90;;;;;;4998815;28;19925;-80
2021/09/17 02:32:22;;;;;;;;;;;12.50;99.90;;;;;;5010966;28;19933;-80
2021/09/17 02:34:49;;;;;;;;;;;12.40;99.90;;;;;;5013353;28;20336;-81
2021/09/17 02:37:16;;;;;;;;;;;12.40;99.90;;;;;;5004121;28;20005;-79
2021/09/17 02:39:43;;;;;;;;;;;12.40;99.90;;;;;;5002421;28;19978;-80
2021/09/17 02:42:10;;;;;;;;;;;12.40;99.90;;;;;;5001530;28;19926;-80
2021/09/17 02:44:37;;;;;;;;;;;12.40;99.90;;;;;;5007884;28;19925;-80
2021/09/17 02:47:05;;;;;;;;;;;12.40;99.90;;;;;;5008234;28;19978;-80
2021/09/17 02:49:33;;;;;;;;;;;12.50;99.90;;;;;;5010071;28;19926;-81
2021/09/17 02:52:00;;;;;;;;;;;12.50;99.90;;;;;;5006394;28;20012;-80
2021/09/17 02:54:27;;;;;;;;;;;12.60;99.90;;;;;;5012025;28;19929;-80
2021/09/17 02:56:53;;;;;;;;;;;12.60;99.90;;;;;;5010130;28;19932;-80
2021/09/17 02:59:20;;;;;;;;;;;12.60;99.90;;;;;;5007980;28;20001;-81
2021/09/17 03:01:47;;;;;;;;;;;12.60;99.90;;;;;;5005491;28;19930;-80
2021/09/17 03:04:15;;;;;;;;;;;12.60;99.90;;;;;;5014257;28;19933;-80
2021/09/17 03:06:42;;;;;;;;;;;12.60;99.90;;;;;;5003402;28;19932;-80
2021/09/17 03:09:09;;;;;;;;;;;12.50;99.90;;;;;;4999504;28;19930;-81
2021/09/17 03:11:36;;;;;;;;;;;12.50;99.90;;;;;;5005559;28;20291;-80
2021/09/17 03:14:02;;;;;;;;;;;12.60;99.90;;;;;;5013681;28;19929;-80
2021/09/17 03:16:29;;;;;;;;;;;12.60;99.90;;;;;;5006001;28;19926;-80
2021/09/17 03:18:56;;;;;;;;;;;12.60;99.90;;;;;;5002795;28;19933;-79
2021/09/17 03:21:24;;;;;;;;;;;12.60;99.90;;;;;;5007977;28;19929;-79
2021/09/17 03:23:51;;;;;;;;;;;12.60;99.90;;;;;;5002740;28;20399;-80
2021/09/17 03:26:18;;;;;;;;;;;12.60;99.90;;;;;;4999391;28;19970;-80
2021/09/17 03:28:45;;;;;;;;;;;12.60;99.90;;;;;;5003736;28;19933;-80
2021/09/17 03:31:12;;;;;;;;;;;12.50;99.90;;;;;;5005962;28;20546;-79
2021/09/17 03:33:38;;;;;;;;;;;12.50;99.90;;;;;;5011931;28;20264;-80
2021/09/17 03:36:05;;;;;;;;;;;12.50;99.90;;;;;;5011382;28;19936;-80
2021/09/17 03:38:34;;;;;;;;;;;12.50;99.90;;;;;;5007617;28;19925;-81
2021/09/17 03:41:01;;;;;;;;;;;12.50;99.90;;;;;;5011917;28;19940;-81
2021/09/17 03:43:28;;;;;;;;;;;12.50;99.90;;;;;;5009397;28;19975;-80
2021/09/17 03:45:56;;;;;;;;;;;12.50;99.90;;;;;;5015639;28;19933;-80
2021/09/17 03:48:23;;;;;;;;;;;12.50;99.90;;;;;;5004252;28;19932;-80
2021/09/17 03:50:49;;;;;;;;;;;12.50;99.90;;;;;;5014016;28;19932;-81
2021/09/17 03:53:16;;;;;;;;;;;12.50;99.90;;;;;;5009598;28;19925;-81
2021/09/17 03:55:44;;;;;;;;;;;12.50;99.90;;;;;;5003492;28;20015;-82
2021/09/17 03:58:12;;;;;;;;;;;12.50;99.90;;;;;;5011578;28;19926;-82
2021/09/17 04:00:39;;;;;;;;;;;12.50;99.90;;;;;;5013228;28;19925;-83
2021/09/17 04:03:06;;;;;;;;;;;12.40;99.90;;;;;;5010290;28;19948;-82
2021/09/17 04:05:33;;;;;;;;;;;12.40;99.90;;;;;;5005802;28;19937;-83
2021/09/17 04:07:59;;;;;;;;;;;12.30;99.90;;;;;;5006517;28;20272;-83
2021/09/17 04:10:26;;;;;;;;;;;12.30;99.90;;;;;;5006912;28;19925;-81
2021/09/17 04:12:54;;;;;;;;;;;12.30;99.90;;;;;;5007576;28;20384;-81
2021/09/17 04:15:21;;;;;;;;;;;12.30;99.90;;;;;;5003462;28;19930;-79
2021/09/17 04:17:48;;;;;;;;;;;12.20;99.90;;;;;;5007073;28;19955;-79
2021/09/17 04:20:15;;;;;;;;;;;12.20;99.90;;;;;;4998647;28;19930;-80
2021/09/17 04:22:41;;;;;;;;;;;12.20;99.90;;;;;;5002913;28;19937;-81
2021/09/17 04:25:09;;;;;;;;;;;12.20;99.90;;;;;;5013054;28;19929;-80
2021/09/17 04:27:36;;;;;;;;;;;12.20;99.90;;;;;;4999220;28;19932;-79
2021/09/17 04:30:05;;;;;;;;;;;12.20;99.90;;;;;;5010371;28;19937;-80
2021/09/17 04:32:31;;;;;;;;;;;12.20;99.90;;;;;;5003627;28;19925;-81
2021/09/17 04:34:58;;;;;;;;;;;12.10;99.90;;;;;;5014652;28;19925;-81
2021/09/17 04:37:25;;;;;;;;;;;12.10;99.90;;;;;;5008134;28;19940;-81
2021/09/17 04:39:52;;;;;;;;;;;12.00;99.90;;;;;;4999128;28;19926;-81
2021/09/17 04:42:19;;;;;;;;;;;12.00;99.90;;;;;;5007217;28;20434;-80
2021/09/17 04:44:46;;;;;;;;;;;12.00;99.90;;;;;;5005969;28;19985;-80
2021/09/17 04:47:14;;;;;;;;;;;12.00;99.90;;;;;;5000967;28;19933;-80
2021/09/17 04:49:41;;;;;;;;;;;11.90;99.90;;;;;;5002442;28;19936;-80
2021/09/17 04:52:07;;;;;;;;;;;12.00;99.90;;;;;;5011589;28;19947;-80
2021/09/17 04:54:34;;;;;;;;;;;11.90;99.90;;;;;;5018425;28;19969;-79
2021/09/17 04:57:01;;;;;;;;;;;11.90;99.90;;;;;;5030586;28;19926;-80
2021/09/17 04:59:28;;;;;;;;;;;11.90;99.90;;;;;;5025730;28;19960;-80
2021/09/17 05:01:55;;;;;;;;;;;11.90;99.90;;;;;;5025733;28;19970;-80
2021/09/17 05:04:23;;;;;;;;;;;11.80;99.90;;;;;;5006832;28;19934;-80
2021/09/17 05:06:50;;;;;;;;;;;11.80;99.90;;;;;;5008410;28;19925;-79
2021/09/17 05:09:16;;;;;;;;;;;11.90;99.90;;;;;;5001478;28;20442;-77
2021/09/17 05:11:43;;;;;;;;;;;11.90;99.90;;;;;;5009225;28;19986;-80
2021/09/17 05:14:10;;;;;;;;;;;11.90;99.90;;;;;;5010515;28;19978;-80
2021/09/17 05:16:37;;;;;;;;;;;11.90;99.90;;;;;;5009676;28;19926;-80
2021/09/17 05:19:04;;;;;;;;;;;11.90;99.90;;;;;;5004312;28;20036;-77
2021/09/17 05:21:33;;;;;;;;;;;11.90;99.90;;;;;;5007638;28;19933;-80
2021/09/17 05:23:59;;;;;;;;;;;12.00;99.90;;;;;;5004751;28;19947;-84
2021/09/17 05:26:26;;;;;;;;;;;12.00;99.90;;;;;;5006844;28;19933;-84
2021/09/17 05:28:53;;;;;;;;;;;12.00;99.90;;;;;;4999773;28;19929;-84
2021/09/17 05:31:20;;;;;;;;;;;12.10;99.90;;;;;;4999989;28;19982;-82
2021/09/17 05:33:46;;;;;;;;;;;12.10;99.90;;;;;;4998948;28;19934;-82
2021/09/17 05:36:13;;;;;;;;;;;12.10;99.90;;;;;;5006849;28;19937;-80
2021/09/17 05:38:42;;;;;;;;;;;12.10;99.90;;;;;;5016108;28;20032;-83
2021/09/17 05:41:08;;;;;;;;;;;12.20;99.90;;;;;;5002414;28;19930;-82
2021/09/17 05:43:35;;;;;;;;;;;12.20;99.90;;;;;;4999813;28;19926;-81
2021/09/17 05:46:02;;;;;;;;;;;12.20;99.90;;;;;;4995574;28;19978;-81
2021/09/17 05:48:29;;;;;;;;;;;12.20;99.90;;;;;;4995159;28;19929;-82
2021/09/17 05:50:56;;;;;;;;;;;12.30;99.90;;;;;;4998776;28;19930;-81
2021/09/17 05:53:22;;;;;;;;;;;12.30;99.90;;;;;;5002019;28;19932;-84
2021/09/17 05:55:51;;;;;;;;;;;12.30;99.90;;;;;;4998948;28;20457;-85
2021/09/17 05:58:18;;;;;;;;;;;12.40;99.90;;;;;;5001748;28;19987;-84
2021/09/17 06:00:45;;;;;;;;;;;12.40;99.90;;;;;;4995929;28;20594;-83
2021/09/17 06:03:11;;;;;;;;;;;12.40;99.90;;;;;;4996295;28;19996;-82
2021/09/17 06:05:38;;;;;;;;;;;12.40;99.90;;;;;;4988477;28;19983;-80
2021/09/17 06:08:05;;;;;;;;;;;12.50;99.90;;;;;;4997931;28;19934;-80
2021/09/17 06:10:32;;;;;;;;;;;12.50;99.90;;;;;;5007250;28;19990;-82
2021/09/17 06:13:00;;;;;;;;;;;12.50;99.90;;;;;;5009481;28;20399;-83
2021/09/17 06:15:27;;;;;;;;;;;12.60;99.90;;;;;;5003536;28;20308;-78
2021/09/17 06:17:54;;;;;;;;;;;12.60;99.90;;;;;;4997817;28;19934;-82
2021/09/17 06:20:21;;;;;;;;;;;12.70;99.90;;;;;;5006767;28;19932;-81
2021/09/17 06:22:53;;;;;;;;;;;12.70;99.90;;;;;;5003780;28;20365;-79
2021/09/17 06:25:20;;;;;;;;;;;12.80;99.90;;;;;;5004991;28;19948;-83
2021/09/17 06:27:47;;;;;;;;;;;12.90;99.90;;;;;;5005034;28;19949;-82
2021/09/17 06:30:15;;;;;;;;;;;12.90;99.90;;;;;;5000540;28;19930;-83
2021/09/17 06:32:42;;;;;;;;;;;12.90;99.90;;;;;;5003861;28;21771;-81
2021/09/17 06:35:10;;;;;;;;;;;13.00;99.90;;;;;;5007021;28;19937;-79
2021/09/17 06:37:43;;;;;;;;;;;13.10;99.90;;;;;;5009392;28;19926;-83
2021/09/17 06:40:11;;;;;;;;;;;13.20;99.90;;;;;;4999653;28;20365;-79
2021/09/17 06:42:38;;;;;;;;;;;13.30;99.90;;;;;;5006027;28;19937;-75
2021/09/17 06:45:06;;;;;;;;;;;13.40;99.90;;;;;;5006439;28;19938;-83
2021/09/17 06:47:41;;;;;;;;;;;13.50;99.90;;;;;;5006724;28;19933;-79
2021/09/17 06:50:09;;;;;;;;;;;13.70;99.90;;;;;;5008388;28;20003;-80
2021/09/17 06:52:35;;;;;;;;;;;13.80;99.90;;;;;;5007981;28;20081;-81
2021/09/17 06:55:02;;;;;;;;;;;13.90;99.90;;;;;;5009167;28;19933;-83
2021/09/17 06:57:29;;;;;;;;;;;14.00;99.90;;;;;;5006512;28;19925;-81
2021/09/17 06:59:56;;;;;;;;;;;14.10;99.90;;;;;;5006840;28;19926;-82
2021/09/17 07:02:23;;;;;;;;;;;14.30;99.90;;;;;;4997090;28;19929;-79
2021/09/17 07:04:51;;;;;;;;;;;14.50;99.90;;;;;;5002763;28;19994;-81
2021/09/17 07:07:18;;;;;;;;;;;14.70;99.90;;;;;;5006526;28;20283;-83
2021/09/17 07:09:45;;;;;;;;;;;14.70;99.90;;;;;;5004168;28;19940;-82
2021/09/17 07:12:12;;;;;;;;;;;15.00;99.90;;;;;;5009189;28;19926;-77
2021/09/17 07:14:39;;;;;;;;;;;15.20;99.90;;;;;;5012484;28;20015;-76
2021/09/17 07:17:05;;;;;;;;;;;15.30;99.90;;;;;;5004482;28;19925;-79
2021/09/17 07:19:32;;;;;;;;;;;15.60;99.90;;;;;;5012367;28;20403;-81
2021/09/17 07:22:04;;;;;;;;;;;15.80;99.90;;;;;;5013307;28;19925;-82
2021/09/17 07:24:30;;;;;;;;;;;15.90;99.90;;;;;;5003733;28;19933;-81
2021/09/17 07:26:57;;;;;;;;;;;15.90;99.90;;;;;;5007642;28;19971;-80
2021/09/17 07:29:24;;;;;;;;;;;15.60;99.90;;;;;;5004976;28;20434;-82
2021/09/17 07:31:51;;;;;;;;;;;15.50;99.90;;;;;;5004434;28;20285;-79
2021/09/17 07:34:18;;;;;;;;;;;15.40;99.90;;;;;;5001606;28;19926;-81
2021/09/17 07:36:44;;;;;;;;;;;15.30;99.90;;;;;;5000937;28;19933;-82
2021/09/17 07:39:13;;;;;;;;;;;15.40;99.90;;;;;;4995445;28;20319;-79
2021/09/17 07:41:40;;;;;;;;;;;15.60;99.90;;;;;;5003929;28;19932;-82
2021/09/17 07:44:07;;;;;;;;;;;15.80;99.90;;;;;;5006604;28;20462;-78
2021/09/17 07:46:34;;;;;;;;;;;15.80;99.90;;;;;;5000156;28;19935;-75
2021/09/17 07:49:00;;;;;;;;;;;15.90;99.90;;;;;;5005493;28;20253;-77
2021/09/17 07:51:27;;;;;;;;;;;16.50;99.90;;;;;;4999181;28;19929;-80
2021/09/17 07:53:54;;;;;;;;;;;16.90;99.90;;;;;;5003067;28;19925;-80
2021/09/17 07:56:22;;;;;;;;;;;16.90;99.90;;;;;;5001516;28;19929;-81
2021/09/17 07:58:49;;;;;;;;;;;17.00;99.90;;;;;;5012955;28;19926;-79
2021/09/17 08:01:16;;;;;;;;;;;17.90;99.90;;;;;;5001996;28;19933;-81
2021/09/17 08:03:43;;;;;;;;;;;18.80;99.90;;;;;;5014444;28;19925;-83
2021/09/17 08:06:10;;;;;;;;;;;19.60;99.90;;;;;;5014823;28;19978;-79
2021/09/17 08:08:37;;;;;;;;;;;19.50;99.90;;;;;;5000593;28;20021;-81
2021/09/17 08:11:04;;;;;;;;;;;20.10;99.90;;;;;;5004009;28;20001;-80
2021/09/17 08:13:32;;;;;;;;;;;20.50;99.90;;;;;;5004721;28;19925;-77
2021/09/17 08:15:59;;;;;;;;;;;21.20;99.90;;;;;;5000005;28;20006;-78
2021/09/17 08:18:26;;;;;;;;;;;22.10;99.90;;;;;;5002783;28;19995;-78
2021/09/17 08:20:57;;;;;;;;;;;23.10;99.90;;;;;;5003467;28;19926;-82
2021/09/17 08:23:24;;;;;;;;;;;23.70;99.90;;;;;;4999872;28;21028;-79
2021/09/17 08:25:52;;;;;;;;;;;24.70;98.60;;;;;;5004114;28;19989;-79
2021/09/17 08:28:18;;;;;;;;;;;25.20;96.40;;;;;;5001381;28;19925;-79
2021/09/17 08:30:47;;;;;;;;;;;24.90;95.70;;;;;;5001481;28;19930;-81
2021/09/17 08:33:13;;;;;;;;;;;24.70;95.00;;;;;;5006128;28;19925;-80
2021/09/17 08:35:40;;;;;;;;;;;24.70;95.50;;;;;;5004449;28;19926;-79
2021/09/17 08:38:07;;;;;;;;;;;24.40;95.20;;;;;;5004182;28;19977;-80
2021/09/17 08:40:34;;;;;;;;;;;24.60;95.70;;;;;;5005066;28;19933;-83
2021/09/17 08:43:01;;;;;;;;;;;25.40;94.60;;;;;;5010933;28;19936;-78
2021/09/17 08:45:28;;;;;;;;;;;25.10;93.70;;;;;;5007845;28;19929;-76
2021/09/17 08:47:58;;;;;;;;;;;24.90;94.30;;;;;;5015685;28;20290;-82
2021/09/17 08:50:25;;;;;;;;;;;25.20;94.00;;;;;;5008379;28;19929;-81
2021/09/17 08:52:51;;;;;;;;;;;25.10;93.00;;;;;;5004835;28;20342;-80
2021/09/17 08:55:18;;;;;;;;;;;24.70;93.20;;;;;;5006024;28;20535;-80
2021/09/17 08:57:45;;;;;;;;;;;25.00;93.60;;;;;;5006074;28;19978;-79
2021/09/17 09:00:27;;;;;;;;;;;25.70;93.00;;;;;;5008017;28;19933;-80
2021/09/17 09:02:56;;;;;;;;;;;26.40;90.10;;;;;;5009063;28;19979;-80
2021/09/17 09:05:27;;;;;;;;;;;26.80;86.90;;;;;;5009830;28;19929;-82
2021/09/17 09:07:54;;;;;;;;;;;26.60;85.20;;;;;;5006880;28;19933;-81
2021/09/17 09:10:21;;;;;;;;;;;26.20;85.30;;;;;;5011661;28;19929;-79
2021/09/17 09:12:49;;;;;;;;;;;25.90;86.20;;;;;;5003934;28;20384;-83
2021/09/17 09:15:17;;;;;;;;;;;25.50;88.10;;;;;;5009492;28;19971;-79
2021/09/17 09:17:44;;;;;;;;;;;25.50;88.50;;;;;;5006146;28;19929;-81
2021/09/17 09:20:24;;;;;;;;;;;25.90;88.50;;;;;;5004474;28;19926;-84
2021/09/17 09:23:09;;;;;;;;;;;26.50;85.20;;;;;;5011127;28;19961;-85
2021/09/17 09:25:48;;;;;;;;;;;27.40;82.10;;;;;;5011480;28;19925;-84
2021/09/17 09:28:15;;;;;;;;;;;27.10;80.50;;;;;;5008502;28;20379;-86
2021/09/17 09:30:42;;;;;;;;;;;27.00;80.50;;;;;;5021465;28;20001;-85
2021/09/17 09:33:31;;;;;;;;;;;27.00;80.10;;;;;;5012267;28;19935;-85
2021/09/17 09:36:02;;;;;;;;;;;26.90;78.60;;;;;;5011677;28;19932;-83
2021/09/17 09:38:40;;;;;;;;;;;26.30;81.90;;;;;;5006107;28;19940;-81
2021/09/17 09:41:09;;;;;;;;;;;26.30;82.90;;;;;;5007920;28;20596;-81
2021/09/17 09:43:37;;;;;;;;;;;26.60;79.60;;;;;;5007603;28;19941;-82
2021/09/17 09:46:25;;;;;;;;;;;26.60;78.80;;;;;;4999186;28;19932;-80
2021/09/17 09:49:02;;;;;;;;;;;26.70;77.80;;;;;;5015912;28;19929;-80
2021/09/17 09:51:29;;;;;;;;;;;27.10;75.60;;;;;;5002235;28;19926;-81
2021/09/17 09:53:57;;;;;;;;;;;27.10;74.20;;;;;;5008770;28;19925;-81
2021/09/17 09:56:25;;;;;;;;;;;26.70;76.70;;;;;;5007434;28;20375;-81
2021/09/17 09:58:52;;;;;;;;;;;26.80;75.70;;;;;;5005890;28;19929;-81
2021/09/17 10:01:20;;;;;;;;;;;27.00;74.70;;;;;;5004622;28;19926;-81
2021/09/17 10:03:47;;;;;;;;;;;27.00;72.30;;;;;;5005114;28;20284;-81
2021/09/17 10:06:14;;;;;;;;;;;27.20;71.20;;;;;;5011870;28;19925;-81
2021/09/17 10:08:41;;;;;;;;;;;27.00;73.30;;;;;;5004921;28;19929;-81
2021/09/17 10:11:08;;;;;;;;;;;25.30;74.90;;;;;;5007180;28;19948;-81
2021/09/17 10:13:36;;;;;;;;;;;23.60;81.50;;;;;;5006862;28;19970;-81
2021/09/17 10:16:04;;;;;;;;;;;22.50;87.20;;;;;;5009714;28;19925;-84
2021/09/17 10:18:31;;;;;;;;;;;21.70;93.30;;;;;;5021736;28;19925;-82
2021/09/17 10:20:57;;;;;;;;;;;21.30;95.20;;;;;;5015633;28;19970;-80
2021/09/17 10:23:25;;;;;;;;;;;21.30;96.90;;;;;;5022591;28;19925;-82
2021/09/17 10:26:01;;;;;;;;;;;21.40;97.50;;;;;;5012186;28;20025;-82
2021/09/17 10:28:28;;;;;;;;;;;21.60;97.40;;;;;;5007647;28;20412;-84
2021/09/17 10:31:09;;;;;;;;;;;21.70;97.20;;;;;;5014699;28;19940;-78
2021/09/17 10:33:36;;;;;;;;;;;21.50;95.50;;;;;;5009381;28;19925;-78
2021/09/17 10:36:03;;;;;;;;;;;21.20;95.80;;;;;;5001695;28;19933;-80
2021/09/17 10:38:31;;;;;;;;;;;21.20;95.40;;;;;;5001624;28;19926;-82
2021/09/17 10:41:03;;;;;;;;;;;21.20;95.40;;;;;;4998089;28;19933;-80
2021/09/17 10:43:37;;;;;;;;;;;21.10;95.70;;;;;;5007384;28;20330;-81
2021/09/17 10:46:06;;;;;;;;;;;21.10;95.40;;;;;;5003810;28;20039;-80
2021/09/17 10:49:00;;;;;;;;;;;21.20;95.70;;;;;;5007917;28;19936;-81
2021/09/17 10:51:28;;;;;;;;;;;21.20;96.20;;;;;;5022994;28;20377;-81
2021/09/17 10:53:56;;;;;;;;;;;21.40;96.50;;;;;;5009549;28;19932;-79
2021/09/17 10:56:23;;;;;;;;;;;21.50;96.90;;;;;;5005189;28;19929;-81
2021/09/17 10:59:05;;;;;;;;;;;21.70;95.70;;;;;;5007782;28;19926;-79
2021/09/17 11:01:48;;;;;;;;;;;21.70;94.70;;;;;;5008609;28;19941;-80
2021/09/17 11:04:19;;;;;;;;;;;21.70;95.10;;;;;;5013871;28;20336;-81
2021/09/17 11:06:46;;;;;;;;;;;21.90;95.20;;;;;;5009753;28;19989;-82
2021/09/17 11:09:13;;;;;;;;;;;22.00;94.40;;;;;;5004317;28;19926;-84
2021/09/17 11:11:41;;;;;;;;;;;21.70;94.90;;;;;;5009926;28;19930;-83
2021/09/17 11:14:09;;;;;;;;;;;21.70;95.60;;;;;;5012376;28;20041;-83
2021/09/17 11:16:37;;;;;;;;;;;21.70;95.80;;;;;;5013545;28;19993;-83
2021/09/17 11:19:05;;;;;;;;;;;21.70;95.30;;;;;;5021302;28;19929;-81
2021/09/17 11:21:35;;;;;;;;;;;21.80;95.90;;;;;;5011683;28;19973;-81
2021/09/17 11:24:02;;;;;;;;;;;22.10;95.90;;;;;;5005565;28;19929;-81
2021/09/17 11:26:30;;;;;;;;;;;22.20;95.60;;;;;;5010180;28;19931;-83
2021/09/17 11:28:57;;;;;;;;;;;22.30;96.40;;;;;;5003723;28;19930;-76
2021/09/17 11:31:25;;;;;;;;;;;22.00;95.30;;;;;;5013359;28;20214;-82
2021/09/17 11:33:57;;;;;;;;;;;21.70;96.50;;;;;;5005281;28;19929;-86
2021/09/17 11:36:34;;;;;;;;;;;21.30;97.40;;;;;;5012259;28;19958;-81
2021/09/17 11:39:10;;;;;;;;;;;21.30;97.20;;;;;;5007561;28;19933;-81
2021/09/17 11:41:37;;;;;;;;;;;21.50;96.90;;;;;;5004865;28;19941;-82
2021/09/17 11:44:04;;;;;;;;;;;21.50;96.70;;;;;;5001693;28;20020;-84
2021/09/17 11:46:31;;;;;;;;;;;21.70;96.90;;;;;;5004141;28;19934;-80
2021/09/17 11:48:59;;;;;;;;;;;21.80;95.90;;;;;;5002823;28;19947;-80
2021/09/17 11:51:26;;;;;;;;;;;22.00;95.60;;;;;;5004731;28;19925;-82
2021/09/17 11:53:53;;;;;;;;;;;22.20;94.90;;;;;;5000169;28;19997;-81
2021/09/17 11:56:20;;;;;;;;;;;22.30;94.90;;;;;;5006766;28;20018;-80
2021/09/17 11:58:48;;;;;;;;;;;22.50;94.40;;;;;;5008606;28;19925;-84
2021/09/17 12:01:19;;;;;;;;;;;22.70;93.30;;;;;;5004333;28;20398;-84
2021/09/17 12:03:46;;;;;;;;;;;22.20;93.60;;;;;;5000378;28;19925;-83
2021/09/17 12:06:15;;;;;;;;;;;22.20;94.10;;;;;;5000435;28;19929;-80
2021/09/17 12:08:44;;;;;;;;;;;22.30;93.20;;;;;;4997845;28;21629;-79
2021/09/17 12:11:11;;;;;;;;;;;22.30;93.80;;;;;;5009343;28;19925;-85
2021/09/17 12:13:38;;;;;;;;;;;22.50;94.10;;;;;;5005837;28;19954;-80
2021/09/17 12:16:06;;;;;;;;;;;22.60;93.80;;;;;;4999159;28;21073;-82
2021/09/17 12:18:33;;;;;;;;;;;22.90;94.20;;;;;;5003998;28;19925;-81
2021/09/17 12:21:02;;;;;;;;;;;22.70;92.60;;;;;;5002042;28;19937;-82
2021/09/17 12:23:37;;;;;;;;;;;22.80;93.80;;;;;;5006632;28;19940;-80
2021/09/17 12:26:07;;;;;;;;;;;23.00;92.90;;;;;;5013521;28;19929;-80
2021/09/17 12:28:34;;;;;;;;;;;23.00;92.60;;;;;;5007334;28;19934;-80
2021/09/17 12:31:01;;;;;;;;;;;23.10;93.20;;;;;;5009412;28;19929;-81
2021/09/17 12:33:29;;;;;;;;;;;23.20;93.10;;;;;;5001683;28;19926;-80
2021/09/17 12:35:57;;;;;;;;;;;23.20;93.00;;;;;;5000777;28;20012;-81
2021/09/17 12:38:25;;;;;;;;;;;23.20;93.40;;;;;;5003059;28;19929;-80
2021/09/17 12:40:54;;;;;;;;;;;23.20;93.10;;;;;;5014509;28;19929;-78
2021/09/17 12:43:25;;;;;;;;;;;23.10;92.40;;;;;;5006551;28;19926;-76
2021/09/17 12:45:57;;;;;;;;;;;23.00;92.30;;;;;;5007297;28;20322;-81
2021/09/17 12:48:25;;;;;;;;;;;23.10;92.50;;;;;;5000779;28;20369;-78
2021/09/17 12:50:53;;;;;;;;;;;23.40;91.00;;;;;;5003470;28;19933;-77
2021/09/17 12:53:21;;;;;;;;;;;23.80;90.90;;;;;;5003350;28;19971;-76
2021/09/17 12:55:49;;;;;;;;;;;24.00;90.00;;;;;;5001420;28;20030;-73
2021/09/17 12:58:18;;;;;;;;;;;23.90;88.70;;;;;;5001490;28;19925;-80
2021/09/17 13:00:47;;;;;;;;;;;23.90;90.30;;;;;;4999745;28;19941;-79
2021/09/17 13:03:15;;;;;;;;;;;23.80;91.60;;;;;;5006457;28;19930;-78
2021/09/17 13:05:43;;;;;;;;;;;23.80;91.60;;;;;;5001756;28;19935;-78
2021/09/17 13:08:10;;;;;;;;;;;23.50;91.90;;;;;;4999333;28;19933;-78
2021/09/17 13:10:37;;;;;;;;;;;23.40;92.20;;;;;;5015722;28;19925;-84
2021/09/17 13:13:05;;;;;;;;;;;23.20;92.70;;;;;;5018433;28;19933;-84
2021/09/17 13:15:33;;;;;;;;;;;23.00;92.60;;;;;;5013157;28;20269;-79
2021/09/17 13:18:00;;;;;;;;;;;23.00;92.90;;;;;;5011281;28;19955;-79
2021/09/17 13:20:27;;;;;;;;;;;22.60;93.70;;;;;;4996669;28;19926;-78
2021/09/17 13:22:55;;;;;;;;;;;22.10;93.60;;;;;;4997611;28;19933;-79
2021/09/17 13:25:22;;;;;;;;;;;22.30;93.40;;;;;;5005392;28;19925;-81
2021/09/17 13:27:50;;;;;;;;;;;22.80;93.20;;;;;;5018739;28;19936;-80
2021/09/17 13:30:18;;;;;;;;;;;22.90;92.80;;;;;;5008574;28;19934;-80
2021/09/17 13:32:46;;;;;;;;;;;22.90;91.90;;;;;;5008124;28;19978;-81
2021/09/17 13:35:14;;;;;;;;;;;22.90;91.90;;;;;;5007380;28;19926;-81
2021/09/17 13:37:44;;;;;;;;;;;22.80;91.40;;;;;;5010519;28;19936;-80
2021/09/17 13:40:13;;;;;;;;;;;23.00;91.30;;;;;;5007428;28;19993;-82
2021/09/17 13:42:40;;;;;;;;;;;23.20;91.00;;;;;;5007058;28;19971;-81
2021/09/17 13:45:08;;;;;;;;;;;23.00;91.70;;;;;;5007413;28;20395;-81
2021/09/17 13:47:35;;;;;;;;;;;22.80;92.20;;;;;;5011989;28;20008;-82
2021/09/17 13:50:03;;;;;;;;;;;22.50;92.10;;;;;;5003749;28;19940;-79
2021/09/17 13:52:30;;;;;;;;;;;22.80;91.70;;;;;;5003864;28;19933;-79
2021/09/17 13:54:57;;;;;;;;;;;23.00;91.60;;;;;;4993626;28;19936;-81
2021/09/17 13:57:23;;;;;;;;;;;23.00;92.10;;;;;;4987032;28;19933;-83
2021/09/17 13:59:51;;;;;;;;;;;22.90;92.90;;;;;;4992438;28;19925;-81
2021/09/17 14:02:18;;;;;;;;;;;22.80;91.50;;;;;;4993499;28;20012;-84
2021/09/17 14:04:45;;;;;;;;;;;22.70;91.90;;;;;;4991859;28;19940;-79
2021/09/17 14:07:14;;;;;;;;;;;22.60;92.00;;;;;;4991070;28;19935;-82
2021/09/17 14:09:44;;;;;;;;;;;22.60;92.40;;;;;;4996417;28;19954;-83
2021/09/17 14:12:13;;;;;;;;;;;22.50;92.60;;;;;;4991652;28;19929;-80
2021/09/17 14:14:40;;;;;;;;;;;22.20;93.20;;;;;;4990669;28;19930;-81
2021/09/17 14:17:07;;;;;;;;;;;22.00;94.10;;;;;;4992007;28;19940;-82
2021/09/17 14:19:34;;;;;;;;;;;22.10;93.70;;;;;;4991844;28;20328;-77